Terminal Aerodrome Forecast
Issued by NWS Wilmington, NC

Home | Current Version | Previous Version | Text Only | Print | Product List | Glossary On
Versions: 1 2 3 4 5 6 7 8 9 10 11 12 13 14 15 16 17 18 19 20
000
FTUS42 KILM 051752
TAFFLO
TAF
KFLO 051752Z 0518/0618 01004KT P6SM SCT012 OVC100
     FM052100 02005KT P6SM SCT025 BKN060
     FM060000 03004KT P6SM -RA SCT020 BKN040
     FM060300 03003KT 5SM -RA BR SCT008 BKN015
     FM060600 05006KT 3SM RA BR SCT004 OVC008
     FM061500 VRB03KT 4SM BR OVC006=

USA.gov is the U.S. government's official web portal to all federal, state and local government web resources and services.